Time;durP1;ratioP1;P1;durP2;ratioP2;P2;SDS_P1;SDS_P2;PMS_P1;PMS_P2;Temp;Humidity;BMP_temperature;BMP_pressure;BME280_temperature;BME280_humidity;BME280_pressure;Samples;Min_cycle;Max_cycle;Signal;HPM_P1;HPM_P2
2023/05/10 07:08:00;;;;;;;;;0.00;0.00;;;;;18.42;58.41;101076.72;5077777;27;46411;-78
2023/05/10 07:10:26;;;;;;;;;0.33;0.33;;;;;18.55;58.55;101072.06;5067782;28;45667;-76
2023/05/10 07:12:51;;;;;;;;;0.33;0.33;;;;;18.77;58.18;101075.66;5063407;28;45556;-77
2023/05/10 07:15:17;;;;;;;;;0.00;0.00;;;;;18.96;58.28;101083.00;5065364;27;45530;-76
2023/05/10 07:17:42;;;;;;;;;0.33;0.33;;;;;19.17;57.61;101082.19;5064387;27;46302;-76
2023/05/10 07:20:08;;;;;;;;;2.00;0.00;;;;;19.39;57.96;101085.75;5065735;28;45340;-77
2023/05/10 07:22:33;;;;;;;;;0.00;0.00;;;;;19.58;57.59;101089.53;5068002;28;45344;-78
2023/05/10 07:24:59;;;;;;;;;0.00;0.00;;;;;19.75;56.98;101096.13;5067564;28;45659;-78
2023/05/10 07:27:24;;;;;;;;;0.00;0.00;;;;;19.92;56.65;101088.41;5067861;28;45490;-78
2023/05/10 07:29:49;;;;;;;;;0.00;0.00;;;;;20.07;56.17;101088.91;5068266;27;45846;-78
2023/05/10 07:32:15;;;;;;;;;0.00;0.00;;;;;20.22;56.60;101086.66;5066837;28;48743;-76
2023/05/10 07:34:40;;;;;;;;;0.00;0.00;;;;;20.35;55.81;101087.28;5063461;28;45737;-76
2023/05/10 07:37:06;;;;;;;;;0.00;0.00;;;;;20.47;55.85;101089.88;5063901;27;51720;-76
2023/05/10 07:39:31;;;;;;;;;1.00;1.00;;;;;20.58;56.11;101097.81;5058631;28;45798;-75
2023/05/10 07:41:56;;;;;;;;;1.33;1.00;;;;;20.69;55.50;101091.44;5068106;27;45757;-75
2023/05/10 07:44:22;;;;;;;;;0.00;0.00;;;;;20.77;55.08;101091.56;5065887;27;45451;-75
2023/05/10 07:46:48;;;;;;;;;1.00;1.00;;;;;20.88;55.04;101096.00;5065995;28;46357;-75
2023/05/10 07:49:13;;;;;;;;;2.00;0.00;;;;;20.96;55.15;101092.59;5067221;27;45710;-76
2023/05/10 07:51:39;;;;;;;;;0.00;0.00;;;;;21.03;54.77;101088.34;5066260;28;45458;-75
2023/05/10 07:54:04;;;;;;;;;0.00;0.00;;;;;21.10;54.67;101101.25;5066298;28;45556;-77
2023/05/10 07:56:32;;;;;;;;;0.00;0.00;;;;;21.15;53.69;101098.97;5062712;28;45923;-76
2023/05/10 07:59:01;;;;;;;;;1.00;1.00;;;;;21.18;53.47;101107.63;5066678;28;45538;-75
2023/05/10 08:01:29;;;;;;;;;1.00;0.67;;;;;21.20;53.74;101104.78;5067265;28;45717;-74
2023/05/10 08:03:55;;;;;;;;;2.00;0.00;;;;;21.21;53.50;101101.09;5059029;28;45559;-81
2023/05/10 08:06:20;;;;;;;;;0.00;0.00;;;;;21.26;53.34;101103.38;5065799;28;46132;-80
2023/05/10 08:08:49;;;;;;;;;0.67;0.67;;;;;21.28;53.62;101098.66;5056107;28;45484;-76
2023/05/10 08:11:18;;;;;;;;;2.00;2.00;;;;;21.34;53.34;101103.50;5057504;28;45541;-76
2023/05/10 08:13:47;;;;;;;;;0.33;0.33;;;;;21.38;53.62;101107.59;5058857;28;45549;-76
2023/05/10 08:16:13;;;;;;;;;1.33;0.00;;;;;21.42;53.08;101106.31;5059577;28;45561;-77
2023/05/10 08:18:39;;;;;;;;;2.00;0.33;;;;;21.46;53.30;101109.59;5055018;28;45466;-74
2023/05/10 08:21:05;;;;;;;;;0.00;0.00;;;;;21.50;53.24;101110.97;5042625;28;45472;-74
2023/05/10 08:23:31;;;;;;;;;0.00;0.00;;;;;21.55;53.27;101108.69;5038113;28;45456;-75
2023/05/10 08:25:56;;;;;;;;;0.67;0.00;;;;;21.57;53.47;101120.22;5045763;28;46516;-78
2023/05/10 08:28:22;;;;;;;;;2.00;0.67;;;;;21.62;53.18;101116.22;5044727;28;45466;-76
2023/05/10 08:30:49;;;;;;;;;0.00;0.00;;;;;21.64;53.19;101122.34;5042580;28;45347;-78
2023/05/10 08:33:15;;;;;;;;;0.00;0.00;;;;;21.68;53.23;101127.31;5049032;28;45605;-76
2023/05/10 08:35:41;;;;;;;;;0.00;0.00;;;;;21.70;53.09;101121.72;5046588;28;46259;-79
2023/05/10 08:38:06;;;;;;;;;0.00;0.00;;;;;21.72;53.07;101125.19;5053285;28;45797;-78
2023/05/10 08:40:31;;;;;;;;;1.67;0.00;;;;;21.75;53.05;101126.75;5047657;28;45681;-78
2023/05/10 08:43:03;;;;;;;;;2.00;0.67;;;;;21.77;53.39;101128.28;5044568;28;45792;-77
2023/05/10 08:45:33;;;;;;;;;0.00;0.00;;;;;21.79;53.10;101123.59;5043149;28;45920;-76
2023/05/10 08:48:01;;;;;;;;;0.00;0.00;;;;;21.82;52.92;101128.69;5047840;28;45518;-76
2023/05/10 08:50:26;;;;;;;;;0.00;0.00;;;;;21.85;52.96;101131.13;5045720;28;45506;-78
2023/05/10 08:52:55;;;;;;;;;1.00;1.00;;;;;21.86;53.03;101134.66;5053048;28;45471;-77
2023/05/10 08:55:20;;;;;;;;;0.00;0.00;;;;;21.89;53.28;101145.19;5046775;28;46464;-76
2023/05/10 08:57:46;;;;;;;;;1.00;1.00;;;;;21.91;53.23;101142.34;5048771;28;45405;-75
2023/05/10 09:00:13;;;;;;;;;0.00;0.00;;;;;21.92;53.08;101141.34;5047953;28;45427;-77
2023/05/10 09:02:39;;;;;;;;;0.00;0.00;;;;;21.95;53.02;101146.44;5047260;28;45376;-75
2023/05/10 09:05:05;;;;;;;;;1.00;0.00;;;;;21.96;53.19;101154.38;5044322;28;46193;-75
2023/05/10 09:07:31;;;;;;;;;0.00;0.00;;;;;21.99;53.58;101153.28;5050233;28;45436;-77
2023/05/10 09:09:57;;;;;;;;;0.00;0.00;;;;;21.99;53.37;101150.56;5051201;28;45680;-77
2023/05/10 09:12:23;;;;;;;;;0.00;0.00;;;;;22.02;53.39;101162.94;5046514;28;45396;-82
2023/05/10 09:14:52;;;;;;;;;0.33;0.33;;;;;22.04;53.40;101164.47;5049520;28;46703;-78
2023/05/10 09:17:17;;;;;;;;;0.00;0.00;;;;;22.03;53.64;101160.06;5050319;28;45648;-77
2023/05/10 09:19:44;;;;;;;;;0.00;0.00;;;;;22.05;53.62;101163.47;5047974;28;45473;-78
2023/05/10 09:22:10;;;;;;;;;0.00;0.00;;;;;22.08;53.60;101183.94;5050387;28;45454;-79
2023/05/10 09:24:36;;;;;;;;;0.67;0.00;;;;;22.09;53.26;101180.25;5049929;28;46024;-77
2023/05/10 09:27:02;;;;;;;;;0.00;0.00;;;;;22.09;53.48;101191.91;5048653;28;45968;-83
2023/05/10 09:29:39;;;;;;;;;0.00;0.00;;;;;22.11;53.42;101186.34;5045293;28;45379;-77
2023/05/10 09:32:04;;;;;;;;;0.00;0.00;;;;;22.15;53.34;101189.63;5046959;28;46617;-76
2023/05/10 09:34:31;;;;;;;;;0.00;0.00;;;;;22.17;53.79;101198.41;5046371;28;45431;-75
2023/05/10 09:37:00;;;;;;;;;1.00;0.00;;;;;22.19;53.45;101188.31;5045734;28;45450;-76
2023/05/10 09:39:31;;;;;;;;;1.33;0.00;;;;;22.18;53.08;101187.47;5046282;28;45414;-75
2023/05/10 09:41:58;;;;;;;;;1.00;1.00;;;;;22.22;53.58;101193.41;5045439;28;46981;-77
2023/05/10 09:44:25;;;;;;;;;0.33;0.00;;;;;22.23;53.27;101204.09;5045848;28;46221;-79
2023/05/10 09:46:52;;;;;;;;;0.00;0.00;;;;;22.25;53.62;101201.25;5052252;28;45490;-76
2023/05/10 09:49:18;;;;;;;;;0.00;0.00;;;;;22.27;53.21;101212.75;5048603;28;45573;-78
2023/05/10 09:51:43;;;;;;;;;0.00;0.00;;;;;22.28;53.21;101208.19;5042502;28;45419;-78
2023/05/10 09:54:10;;;;;;;;;1.67;0.00;;;;;22.28;53.49;101208.19;5048457;28;46072;-75
2023/05/10 09:56:38;;;;;;;;;0.00;0.00;;;;;22.28;53.53;101209.06;5046689;28;45479;-73
2023/05/10 09:59:05;;;;;;;;;0.33;0.33;;;;;22.31;53.16;101216.88;5048230;28;45414;-76
2023/05/10 10:01:30;;;;;;;;;0.00;0.00;;;;;22.32;53.30;101215.03;5046463;28;45596;-76
2023/05/10 10:03:57;;;;;;;;;0.00;0.00;;;;;22.34;53.43;101218.41;5039286;28;46133;-76
2023/05/10 10:06:23;;;;;;;;;0.00;0.00;;;;;22.34;53.73;101215.72;5052608;28;45460;-75
2023/05/10 10:08:48;;;;;;;;;1.00;0.33;;;;;22.35;53.31;101220.09;5050309;28;45669;-82
2023/05/10 10:11:14;;;;;;;;;1.00;0.00;;;;;22.35;53.45;101223.69;5053200;28;45549;-80
2023/05/10 10:13:40;;;;;;;;;0.00;0.00;;;;;22.37;53.26;101218.13;5044259;28;46189;-82
2023/05/10 10:16:05;;;;;;;;;2.33;1.00;;;;;22.36;53.37;101217.25;5046605;28;45472;-74
2023/05/10 10:18:31;;;;;;;;;0.00;0.00;;;;;22.39;53.38;101224.22;5042458;28;45498;-76
2023/05/10 10:20:56;;;;;;;;;0.00;0.00;;;;;22.40;53.29;101216.97;5043788;28;45466;-75
2023/05/10 10:23:21;;;;;;;;;1.00;1.00;;;;;22.40;53.59;101215.09;5044086;28;46036;-74
2023/05/10 10:25:48;;;;;;;;;1.00;1.00;;;;;22.43;51.63;101222.94;5049542;28;45566;-73
2023/05/10 10:28:35;;;;;;;;;2.00;2.00;;;;;22.40;50.56;101214.28;5049520;28;45890;-74
2023/05/10 10:31:16;;;;;;;;;1.00;1.00;;;;;22.35;50.95;101212.88;5041702;28;46111;-72
2023/05/10 10:33:58;;;;;;;;;1.00;1.00;;;;;22.31;51.02;101216.03;5046098;28;46562;-72
2023/05/10 10:36:26;;;;;;;;;3.33;1.00;;;;;22.28;50.56;101211.78;5047915;28;45607;-74
2023/05/10 10:38:53;;;;;;;;;2.67;1.00;;;;;22.23;50.60;101220.31;5046803;28;45613;-74
2023/05/10 10:41:49;;;;;;;;;3.67;1.00;;;;;22.20;50.15;101206.25;5043437;28;45641;-74
2023/05/10 10:44:33;;;;;;;;;2.33;2.00;;;;;22.17;49.96;101217.34;5047823;28;45645;-74
2023/05/10 10:47:24;;;;;;;;;2.00;2.00;;;;;22.13;50.05;101210.53;5050483;28;45434;-74
2023/05/10 10:49:51;;;;;;;;;3.33;3.33;;;;;22.10;49.89;101215.25;5050728;28;45449;-74
2023/05/10 10:52:29;;;;;;;;;4.00;3.00;;;;;22.08;49.70;101216.38;5049394;28;45424;-74
2023/05/10 10:55:06;;;;;;;;;2.00;2.00;;;;;22.05;49.56;101209.44;5048015;28;47129;-74
2023/05/10 10:57:54;;;;;;;;;4.33;3.67;;;;;22.04;49.65;101215.84;5048751;28;45616;-74
2023/05/10 11:00:26;;;;;;;;;2.67;2.33;;;;;22.01;49.25;101216.13;5042545;28;45525;-74
2023/05/10 11:03:06;;;;;;;;;3.00;3.00;;;;;21.98;49.53;101209.16;5042833;28;45684;-73
2023/05/10 11:05:48;;;;;;;;;4.00;4.00;;;;;21.94;49.55;101207.75;5040661;28;46027;-74
2023/05/10 11:08:33;;;;;;;;;2.00;2.00;;;;;21.92;49.40;101207.06;5049953;28;46452;-74
2023/05/10 11:10:59;;;;;;;;;2.00;2.00;;;;;21.91;49.07;101210.72;5048110;28;45553;-74
2023/05/10 11:13:29;;;;;;;;;3.00;3.00;;;;;21.90;48.98;101213.59;5047382;28;45579;-74
2023/05/10 11:15:56;;;;;;;;;5.33;3.67;;;;;21.88;48.95;101213.75;5050635;28;46383;-74
2023/05/10 11:18:27;;;;;;;;;3.00;3.00;;;;;21.83;49.24;101211.47;5040752;28;45432;-74
2023/05/10 11:21:04;;;;;;;;;3.33;2.00;;;;;21.82;49.32;101208.91;5044365;28;46493;-74
2023/05/10 11:23:50;;;;;;;;;3.00;3.00;;;;;21.78;49.25;101211.06;5050951;28;45307;-74
2023/05/10 11:26:15;;;;;;;;;3.00;3.00;;;;;21.76;49.31;101204.94;5044817;28;45728;-74
2023/05/10 11:28:44;;;;;;;;;2.00;2.00;;;;;21.76;49.07;101201.38;5036007;28;46010;-74
2023/05/10 11:31:10;;;;;;;;;3.00;3.00;;;;;21.73;49.30;101205.22;5050397;28;45676;-74
2023/05/10 11:33:53;;;;;;;;;3.33;3.33;;;;;21.73;49.01;101199.81;5037397;28;45775;-74
2023/05/10 11:36:27;;;;;;;;;3.67;3.00;;;;;21.73;49.12;101199.00;5045289;28;45498;-73
2023/05/10 11:38:54;;;;;;;;;2.00;2.00;;;;;21.71;48.89;101205.38;5042958;28;45727;-74
2023/05/10 11:41:23;;;;;;;;;3.67;3.67;;;;;21.73;49.08;101212.50;5046251;28;45561;-75
2023/05/10 11:43:53;;;;;;;;;4.00;4.00;;;;;21.71;48.83;101209.91;5049375;28;45524;-74
2023/05/10 11:46:21;;;;;;;;;5.67;4.33;;;;;21.67;49.31;101200.38;5043737;28;46227;-74
2023/05/10 11:48:50;;;;;;;;;5.33;4.00;;;;;21.69;49.14;101206.47;5048030;28;45520;-74
2023/05/10 11:51:20;;;;;;;;;5.00;5.00;;;;;21.71;49.16;101196.41;5044734;28;45467;-75
2023/05/10 11:53:45;;;;;;;;;4.67;4.67;;;;;21.73;48.98;101204.41;5050929;28;45521;-74
2023/05/10 11:56:11;;;;;;;;;3.67;2.00;;;;;21.75;49.43;101203.25;5048237;28;54398;-77
2023/05/10 11:58:39;;;;;;;;;2.67;2.33;;;;;21.79;49.33;101203.81;5049455;28;45414;-78
2023/05/10 12:01:07;;;;;;;;;3.00;2.67;;;;;21.80;49.53;101194.69;5052118;28;45473;-80
2023/05/10 12:03:32;;;;;;;;;3.00;3.00;;;;;21.82;49.54;101190.84;5048044;28;45589;-75
2023/05/10 12:06:00;;;;;;;;;7.00;4.00;;;;;21.89;49.46;101192.97;5047284;28;46698;-78
2023/05/10 12:08:27;;;;;;;;;6.00;4.33;;;;;21.91;49.86;101186.41;5051272;28;45428;-79
2023/05/10 12:11:06;;;;;;;;;5.00;3.33;;;;;21.94;49.64;101188.81;5053339;28;46037;-81
2023/05/10 12:13:31;;;;;;;;;5.00;3.33;;;;;21.97;49.57;101191.25;5050526;28;45391;-79
2023/05/10 12:16:11;;;;;;;;;3.00;3.00;;;;;22.02;49.77;101193.50;5041738;28;60988;-79
2023/05/10 12:18:39;;;;;;;;;3.67;2.33;;;;;22.04;49.80;101191.50;5043162;28;45533;-77
2023/05/10 12:21:05;;;;;;;;;3.33;2.00;;;;;22.07;50.08;101183.09;5052875;28;45619;-76
2023/05/10 12:23:30;;;;;;;;;3.67;3.67;;;;;22.10;49.76;101174.69;5052442;28;45494;-77
2023/05/10 12:26:02;;;;;;;;;4.00;4.00;;;;;22.15;50.07;101173.41;5051329;28;45489;-73
2023/05/10 12:28:30;;;;;;;;;2.67;2.67;;;;;22.19;50.05;101177.50;5045116;28;45728;-75
2023/05/10 12:30:57;;;;;;;;;3.00;3.00;;;;;22.20;49.95;101173.81;5048219;28;45645;-74
2023/05/10 12:33:23;;;;;;;;;6.00;6.00;;;;;22.24;50.25;101173.34;5051775;28;45487;-77
2023/05/10 12:35:51;;;;;;;;;3.00;3.00;;;;;22.25;50.15;101172.31;5049400;28;45621;-74
2023/05/10 12:38:26;;;;;;;;;4.00;2.00;;;;;22.29;50.10;101174.75;5045986;28;45441;-75
2023/05/10 12:40:52;;;;;;;;;3.00;2.67;;;;;22.27;50.16;101168.66;5046357;28;47704;-74
2023/05/10 12:43:17;;;;;;;;;3.67;2.00;;;;;22.30;50.63;101173.75;5051534;28;46021;-74
2023/05/10 12:45:47;;;;;;;;;4.00;3.67;;;;;22.32;50.17;101171.75;5040970;28;45719;-74
2023/05/10 12:48:13;;;;;;;;;3.00;2.33;;;;;22.34;50.31;101175.16;5051076;28;45458;-76
2023/05/10 12:50:38;;;;;;;;;1.33;1.33;;;;;22.37;50.27;101174.84;5050941;28;45593;-74
2023/05/10 12:53:03;;;;;;;;;3.33;2.00;;;;;22.40;50.52;101171.81;5053732;28;46664;-76
2023/05/10 12:55:28;;;;;;;;;3.00;3.00;;;;;22.42;50.45;101153.63;5053020;28;47968;-74
2023/05/10 12:57:54;;;;;;;;;1.33;1.33;;;;;22.45;50.88;101169.56;5051539;28;51412;-75
2023/05/10 13:00:19;;;;;;;;;2.67;2.67;;;;;22.46;50.61;101173.94;5053246;28;45466;-74
2023/05/10 13:02:44;;;;;;;;;4.00;2.67;;;;;22.49;50.35;101168.22;5052278;28;45748;-74
2023/05/10 13:05:11;;;;;;;;;3.67;2.67;;;;;22.51;50.67;101168.06;5050243;28;45652;-74
2023/05/10 13:07:36;;;;;;;;;2.67;2.67;;;;;22.54;50.80;101172.38;5047892;28;45591;-74
2023/05/10 13:10:01;;;;;;;;;3.00;3.00;;;;;22.56;50.45;101173.09;5052814;28;46451;-75
2023/05/10 13:12:26;;;;;;;;;2.00;2.00;;;;;22.55;48.67;101165.94;5051571;28;45605;-75
2023/05/10 13:14:52;;;;;;;;;4.67;4.33;;;;;22.51;48.55;101168.94;5050958;28;45512;-75
2023/05/10 13:17:17;;;;;;;;;3.00;1.67;;;;;22.48;48.77;101157.59;5051266;28;45541;-72
2023/05/10 13:19:42;;;;;;;;;4.00;3.00;;;;;22.46;49.07;101162.28;5053042;28;45709;-72
2023/05/10 13:22:08;;;;;;;;;4.00;4.00;;;;;22.46;48.94;101168.53;5049936;28;46351;-74
2023/05/10 13:24:33;;;;;;;;;3.67;3.67;;;;;22.46;49.19;101164.97;5049138;28;46222;-73
2023/05/10 13:26:58;;;;;;;;;5.33;4.00;;;;;22.47;48.79;101161.25;5048530;28;46951;-74
2023/05/10 13:29:24;;;;;;;;;4.67;4.00;;;;;22.46;48.99;101160.44;5050967;28;50960;-73
2023/05/10 13:31:49;;;;;;;;;6.67;3.67;;;;;22.45;49.02;101158.72;5067710;28;45671;-73
2023/05/10 13:34:14;;;;;;;;;4.00;4.00;;;;;22.43;49.30;101160.72;5052577;28;45430;-74
2023/05/10 13:36:40;;;;;;;;;4.67;3.67;;;;;22.44;48.95;101154.31;5052539;28;45488;-74
2023/05/10 13:39:05;;;;;;;;;6.00;3.33;;;;;22.45;48.75;101157.88;5051501;28;45956;-74
2023/05/10 13:41:31;;;;;;;;;4.00;4.00;;;;;22.43;48.85;101159.88;5052354;28;45320;-75
2023/05/10 13:43:56;;;;;;;;;3.67;1.33;;;;;22.42;48.70;101150.91;5052267;28;49704;-73
2023/05/10 13:46:21;;;;;;;;;5.00;5.00;;;;;22.41;48.77;101146.50;5051584;28;45499;-74
2023/05/10 13:48:47;;;;;;;;;3.67;3.67;;;;;22.37;49.02;101140.53;5051763;28;45348;-74
2023/05/10 13:51:12;;;;;;;;;4.67;2.67;;;;;22.36;48.70;101148.81;5053123;28;45480;-74
2023/05/10 13:53:38;;;;;;;;;3.00;2.00;;;;;22.35;48.79;101142.53;5052400;28;45678;-74
2023/05/10 13:56:03;;;;;;;;;2.00;2.00;;;;;22.34;48.85;101143.56;5050932;28;45462;-74
2023/05/10 13:58:28;;;;;;;;;2.67;2.33;;;;;22.33;48.88;101136.44;5051484;28;45591;-75
2023/05/10 14:00:53;;;;;;;;;3.00;3.00;;;;;22.29;48.59;101132.34;5050541;28;51032;-75
2023/05/10 14:03:19;;;;;;;;;4.67;1.33;;;;;22.31;49.01;101141.16;5048549;28;52556;-73
2023/05/10 14:05:45;;;;;;;;;2.67;2.00;;;;;22.30;48.79;101135.88;5042066;28;51394;-74
2023/05/10 14:08:10;;;;;;;;;4.33;3.00;;;;;22.28;49.07;101132.50;5050586;28;45565;-73
2023/05/10 14:10:36;;;;;;;;;4.33;4.33;;;;;22.27;49.21;101136.19;5050516;28;46492;-74
2023/05/10 14:13:03;;;;;;;;;4.33;3.33;;;;;22.27;49.07;101128.09;5042069;28;48298;-75
2023/05/10 14:15:28;;;;;;;;;5.33;3.67;;;;;22.26;49.48;101132.63;5043825;28;47214;-75
2023/05/10 14:17:53;;;;;;;;;8.67;4.00;;;;;22.28;49.60;101130.66;5046942;28;45501;-75
2023/05/10 14:20:19;;;;;;;;;4.00;4.00;;;;;22.32;49.63;101126.63;5057678;28;45493;-74
2023/05/10 14:22:44;;;;;;;;;3.00;3.00;;;;;22.37;49.85;101137.00;5051368;28;46530;-76
2023/05/10 14:25:10;;;;;;;;;3.00;3.00;;;;;22.40;49.88;101144.78;5050703;28;45410;-74
2023/05/10 14:27:35;;;;;;;;;3.33;1.33;;;;;22.44;49.77;101142.66;5051279;28;45793;-73
2023/05/10 14:30:00;;;;;;;;;3.00;2.00;;;;;22.45;49.85;101139.81;5049278;28;50564;-73
2023/05/10 14:32:27;;;;;;;;;4.33;3.00;;;;;22.48;49.64;101142.19;5050955;28;45542;-75
2023/05/10 14:34:52;;;;;;;;;1.33;1.33;;;;;22.51;50.09;101135.63;5050524;28;46414;-75
2023/05/10 14:37:17;;;;;;;;;5.67;3.67;;;;;22.54;49.87;101127.25;5046928;28;47999;-74
2023/05/10 14:39:43;;;;;;;;;5.67;4.00;;;;;22.55;49.94;101131.63;5065477;28;46275;-74
2023/05/10 14:42:08;;;;;;;;;2.00;2.00;;;;;22.56;49.49;101124.38;5049369;28;45933;-74
2023/05/10 14:44:34;;;;;;;;;2.67;2.67;;;;;22.56;49.87;101127.09;5051778;28;45444;-75
2023/05/10 14:46:59;;;;;;;;;3.00;3.00;;;;;22.59;49.90;101127.63;5042303;28;45402;-74
2023/05/10 14:49:25;;;;;;;;;6.00;3.00;;;;;22.61;49.79;101131.03;5047702;28;45526;-73
2023/05/10 14:51:52;;;;;;;;;3.00;2.00;;;;;22.63;49.51;101130.88;5050071;28;45670;-73
2023/05/10 14:54:17;;;;;;;;;5.33;4.00;;;;;22.63;50.10;101130.88;5050160;28;46000;-73
2023/05/10 14:56:43;;;;;;;;;3.67;3.00;;;;;22.65;49.87;101137.00;5046944;28;45626;-73
2023/05/10 14:59:08;;;;;;;;;3.33;3.33;;;;;22.63;49.94;101122.75;5050175;28;45544;-71
2023/05/10 15:01:37;;;;;;;;;4.00;2.00;;;;;22.68;50.08;101120.44;5049077;28;45697;-72
2023/05/10 15:04:02;;;;;;;;;2.67;2.33;;;;;22.69;50.26;101124.00;5048370;28;45379;-75
2023/05/10 15:06:32;;;;;;;;;5.33;3.00;;;;;22.71;50.30;101122.84;5044429;28;45585;-74
2023/05/10 15:08:57;;;;;;;;;3.00;3.00;;;;;22.72;50.04;101102.91;5044923;28;45450;-76
2023/05/10 15:11:23;;;;;;;;;1.00;0.67;;;;;22.74;50.42;101122.56;5048049;28;46225;-75
2023/05/10 15:13:48;;;;;;;;;4.00;2.00;;;;;22.78;49.92;101125.78;5049056;28;45882;-74
2023/05/10 15:16:13;;;;;;;;;4.00;2.00;;;;;22.80;50.48;101126.47;5056280;28;45419;-74
2023/05/10 15:18:39;;;;;;;;;4.00;3.00;;;;;22.82;50.21;101127.19;5048821;28;45511;-74
2023/05/10 15:21:04;;;;;;;;;2.00;2.00;;;;;22.82;50.29;101126.31;5048403;28;53644;-73
2023/05/10 15:23:30;;;;;;;;;3.00;2.00;;;;;22.83;50.64;101119.91;5050277;28;45621;-74
2023/05/10 15:25:55;;;;;;;;;3.00;2.00;;;;;22.84;50.52;101117.03;5049345;28;45735;-72
2023/05/10 15:28:21;;;;;;;;;2.67;2.33;;;;;22.87;50.32;101118.59;5045774;28;45640;-73
2023/05/10 15:30:46;;;;;;;;;2.00;2.00;;;;;22.88;50.04;101118.44;5052081;28;46033;-71
2023/05/10 15:33:11;;;;;;;;;5.00;5.00;;;;;22.86;48.79;101117.75;5050306;28;48988;-71
2023/05/10 15:35:38;;;;;;;;;4.33;3.00;;;;;22.84;48.50;101117.03;5045453;28;46593;-71
2023/05/10 15:38:03;;;;;;;;;5.00;4.00;;;;;22.81;48.54;101121.94;5048434;28;45722;-71
2023/05/10 15:40:28;;;;;;;;;2.33;2.33;;;;;22.78;48.10;101114.97;5054167;28;46155;-72
2023/05/10 15:42:54;;;;;;;;;5.67;5.67;;;;;22.73;48.48;101114.59;5048774;28;45776;-72
2023/05/10 15:45:19;;;;;;;;;4.67;3.00;;;;;22.71;48.26;101121.97;5047070;28;46326;-72
2023/05/10 15:47:45;;;;;;;;;5.67;4.67;;;;;22.70;48.12;101131.13;5049789;28;45375;-71
2023/05/10 15:50:11;;;;;;;;;3.67;3.67;;;;;22.69;48.25;101129.41;5053018;28;45680;-71
2023/05/10 15:52:37;;;;;;;;;2.00;2.00;;;;;22.65;48.43;101128.88;5046033;28;45624;-72
2023/05/10 15:55:02;;;;;;;;;3.00;3.00;;;;;22.64;48.24;101127.16;5047574;28;49666;-72
2023/05/10 15:57:28;;;;;;;;;3.67;3.00;;;;;22.64;47.90;101130.72;5052842;28;45496;-73
2023/05/10 15:59:55;;;;;;;;;2.33;2.33;;;;;22.62;48.15;101126.47;5053087;28;45541;-71
2023/05/10 16:02:21;;;;;;;;;5.00;5.00;;;;;22.59;47.94;101122.22;5047529;28;46983;-75
2023/05/10 16:04:46;;;;;;;;;5.67;2.67;;;;;22.60;48.30;101128.50;5051014;28;45870;-74
2023/05/10 16:07:12;;;;;;;;;4.00;3.33;;;;;22.61;48.22;101132.91;5043567;28;45458;-75
2023/05/10 16:09:37;;;;;;;;;6.33;4.00;;;;;22.61;48.35;101132.91;5050678;28;53232;-75
2023/05/10 16:12:03;;;;;;;;;3.67;3.00;;;;;22.64;48.36;101129.88;5038784;28;47091;-75
2023/05/10 16:14:28;;;;;;;;;6.33;3.33;;;;;22.64;48.27;101136.13;5042493;28;45448;-78
2023/05/10 16:16:53;;;;;;;;;2.33;2.33;;;;;22.67;48.57;101139.53;5051876;28;45664;-78
2023/05/10 16:19:19;;;;;;;;;4.33;4.33;;;;;22.67;48.66;101153.06;5049406;28;50247;-79
2023/05/10 16:21:44;;;;;;;;;3.67;2.33;;;;;22.69;48.79;101149.22;5051237;28;49469;-79
2023/05/10 16:24:10;;;;;;;;;3.00;3.00;;;;;22.68;48.94;101150.19;5043568;28;45555;-80
2023/05/10 16:26:39;;;;;;;;;2.67;2.67;;;;;22.71;49.00;101162.56;5045686;28;45481;-81
2023/05/10 16:29:07;;;;;;;;;4.67;4.67;;;;;22.73;49.07;101169.53;5034616;28;47045;-77
2023/05/10 16:31:33;;;;;;;;;6.67;4.33;;;;;22.73;48.89;101164.13;5038159;28;46458;-77
2023/05/10 16:33:58;;;;;;;;;3.00;3.00;;;;;22.75;49.13;101167.53;5040166;28;45717;-77
2023/05/10 16:36:23;;;;;;;;;5.00;3.33;;;;;22.77;49.12;101164.69;5043249;28;45789;-74
2023/05/10 16:38:49;;;;;;;;;8.33;4.00;;;;;22.77;48.20;101176.34;5035098;28;46075;-73
2023/05/10 16:41:15;;;;;;;;;4.33;4.00;;;;;22.74;47.76;101168.56;5051209;28;58683;-74
2023/05/10 16:43:40;;;;;;;;;2.33;2.33;;;;;22.71;47.80;101170.69;5045674;28;45547;-74
2023/05/10 16:46:09;;;;;;;;;7.33;4.67;;;;;22.66;48.09;101168.47;5048588;28;55681;-74
2023/05/10 16:48:35;;;;;;;;;2.67;2.67;;;;;22.63;48.17;101169.63;5052902;28;45489;-74
2023/05/10 16:51:01;;;;;;;;;3.00;3.00;;;;;22.60;47.98;101172.63;5051926;28;45501;-74
2023/05/10 16:53:27;;;;;;;;;4.33;3.00;;;;;22.56;47.96;101165.78;5051050;28;45436;-74
2023/05/10 16:55:53;;;;;;;;;4.00;4.00;;;;;22.54;48.19;101177.78;5038462;28;45591;-74
2023/05/10 16:58:18;;;;;;;;;5.67;3.00;;;;;22.51;47.94;101177.06;5033897;28;48134;-74
2023/05/10 17:00:43;;;;;;;;;3.67;3.00;;;;;22.48;48.09;101173.81;5036819;28;45379;-74
2023/05/10 17:03:09;;;;;;;;;2.00;2.00;;;;;22.45;48.23;101169.56;5035362;28;45816;-74
2023/05/10 17:05:34;;;;;;;;;3.33;3.33;;;;;22.43;48.31;101166.13;5040211;28;53804;-75
2023/05/10 17:07:59;;;;;;;;;3.00;3.00;;;;;22.41;48.21;101181.66;5068231;28;46242;-74
2023/05/10 17:10:25;;;;;;;;;4.67;4.00;;;;;22.41;47.86;101172.69;5053267;28;45426;-74
2023/05/10 17:12:50;;;;;;;;;5.33;2.00;;;;;22.38;48.21;101171.16;5039921;28;45569;-73
2023/05/10 17:15:17;;;;;;;;;3.33;3.33;;;;;22.37;48.05;101178.41;5046668;28;45487;-74
2023/05/10 17:17:43;;;;;;;;;3.00;3.00;;;;;22.34;48.01;101177.84;5046577;28;45904;-74
2023/05/10 17:20:09;;;;;;;;;3.33;3.33;;;;;22.33;48.00;101176.16;5049170;28;45568;-74
2023/05/10 17:22:34;;;;;;;;;7.33;4.00;;;;;22.30;48.15;101179.16;5046145;28;45582;-73
2023/05/10 17:24:59;;;;;;;;;6.00;3.67;;;;;22.29;48.04;101178.31;5048363;28;45635;-74
2023/05/10 17:27:26;;;;;;;;;4.67;2.67;;;;;22.26;48.14;101167.78;5044827;28;45938;-74
2023/05/10 17:29:56;;;;;;;;;4.33;3.67;;;;;22.26;48.02;101186.72;5048495;28;45966;-73
2023/05/10 17:32:21;;;;;;;;;5.00;5.00;;;;;22.23;48.09;101178.88;5043738;28;46538;-75
2023/05/10 17:34:46;;;;;;;;;9.00;6.00;;;;;22.22;48.11;101174.50;5035105;28;46110;-75
2023/05/10 17:37:12;;;;;;;;;3.33;3.00;;;;;22.21;48.30;101176.34;5037199;28;55300;-75
2023/05/10 17:39:37;;;;;;;;;7.67;5.67;;;;;22.20;48.23;101179.22;5040804;28;45862;-76
2023/05/10 17:42:02;;;;;;;;;3.33;2.67;;;;;22.19;48.46;101175.63;5041629;28;45504;-75
2023/05/10 17:44:28;;;;;;;;;4.33;3.00;;;;;22.17;48.01;101174.09;5039418;28;45572;-77
2023/05/10 17:46:54;;;;;;;;;4.00;4.00;;;;;22.16;48.43;101183.22;5040469;28;45946;-75
2023/05/10 17:49:20;;;;;;;;;6.33;4.67;;;;;22.15;48.10;101176.94;5040175;28;45510;-75
2023/05/10 17:51:48;;;;;;;;;3.00;3.00;;;;;22.14;48.27;101177.94;5058533;27;46948;-75
2023/05/10 17:54:14;;;;;;;;;4.00;2.67;;;;;22.15;48.25;101178.81;5035510;28;45510;-74
2023/05/10 17:56:39;;;;;;;;;3.00;2.33;;;;;22.14;48.82;101185.22;5042638;28;46554;-74
2023/05/10 17:59:05;;;;;;;;;2.00;2.00;;;;;22.12;48.01;101188.06;5040273;28;45787;-74
2023/05/10 18:01:30;;;;;;;;;3.00;3.00;;;;;22.11;47.55;101186.34;5048093;28;45596;-75
2023/05/10 18:03:56;;;;;;;;;5.00;3.00;;;;;22.09;48.08;101191.06;5051866;28;45800;-74
2023/05/10 18:06:21;;;;;;;;;4.00;4.00;;;;;22.07;47.89;101193.91;5048218;28;46476;-74
2023/05/10 18:08:46;;;;;;;;;2.00;2.00;;;;;22.06;48.19;101191.34;5048737;28;45589;-74
2023/05/10 18:11:12;;;;;;;;;3.67;2.00;;;;;22.04;48.35;101199.63;5037161;28;45856;-75
2023/05/10 18:13:37;;;;;;;;;4.33;3.00;;;;;22.04;48.60;101190.66;5046092;28;45591;-74
2023/05/10 18:16:04;;;;;;;;;6.00;4.33;;;;;22.03;48.00;101195.19;5046425;28;45696;-76
2023/05/10 18:18:30;;;;;;;;;3.67;3.00;;;;;22.04;48.41;101196.91;5051388;28;45471;-74
2023/05/10 18:20:57;;;;;;;;;2.33;2.00;;;;;22.06;48.73;101196.75;5051917;28;45446;-74
2023/05/10 18:23:23;;;;;;;;;2.00;2.00;;;;;22.10;48.95;101190.91;5047359;28;45550;-74
2023/05/10 18:25:49;;;;;;;;;2.67;2.33;;;;;22.14;49.02;101198.72;5050366;28;46433;-75
2023/05/10 18:28:15;;;;;;;;;3.00;3.00;;;;;22.16;48.96;101210.25;5045396;28;45520;-76
2023/05/10 18:30:40;;;;;;;;;2.67;2.67;;;;;22.19;49.39;101212.66;5046518;28;45513;-74